ENY4133 KLIT-KCLT
Flight info
| Callsign | ENY4133 |
|---|---|
| Flight time | 1h 23m |
| Altitude | 33000 |
| Route | MICKE BNA TAZZA FILPZ4 |
| Aircraft | E75L/M-SDE3GILORVW/S |
Departure
| Time | 2026-04-26 21:34 |
|---|---|
| Airport | Bill & Hillary Clinton National Airport/Adams Field (KLIT) |
Arrival
| Time | 2026-04-26 22:57 |
|---|---|
| Airport | Charlotte Douglas International Airport (KCLT) |
| Time | Latitude | Longitude | Altitude | Speed | Heading |
|---|---|---|---|---|---|
| 2026-04-26 21:03 | 34.72929 | -92.21971 | 265 ft | 0 kts | 292° |
| 2026-04-26 21:05 | 34.72928 | -92.21967 | 274 ft | 0 kts | 292° |
| 2026-04-26 21:06 | 34.72931 | -92.21979 | 265 ft | 0 kts | 292° |
| 2026-04-26 21:06 | 34.72931 | -92.21977 | 265 ft | 0 kts | 292° |
| 2026-04-26 21:24 | 34.72926 | -92.21960 | 265 ft | 4 kts | 288° |
| 2026-04-26 21:24 | 34.72915 | -92.21934 | 265 ft | 4 kts | 335° |
| 2026-04-26 21:24 | 34.72908 | -92.21932 | 265 ft | 0 kts | 10° |
| 2026-04-26 21:26 | 34.72914 | -92.21930 | 265 ft | 3 kts | 25° |
| 2026-04-26 21:26 | 34.72945 | -92.21906 | 265 ft | 7 kts | 43° |
| 2026-04-26 21:26 | 34.72986 | -92.21861 | 265 ft | 9 kts | 41° |
| 2026-04-26 21:26 | 34.73017 | -92.21799 | 265 ft | 9 kts | 99° |
| 2026-04-26 21:27 | 34.72982 | -92.21698 | 266 ft | 15 kts | 116° |
| 2026-04-26 21:27 | 34.72933 | -92.21570 | 265 ft | 17 kts | 112° |
| 2026-04-26 21:27 | 34.72881 | -92.21429 | 265 ft | 19 kts | 113° |
| 2026-04-26 21:27 | 34.72828 | -92.21277 | 264 ft | 18 kts | 96° |
| 2026-04-26 21:28 | 34.72898 | -92.21152 | 264 ft | 20 kts | 46° |
| 2026-04-26 21:28 | 34.72996 | -92.21027 | 264 ft | 21 kts | 47° |
| 2026-04-26 21:28 | 34.73102 | -92.20895 | 264 ft | 22 kts | 46° |
| 2026-04-26 21:28 | 34.73209 | -92.20757 | 264 ft | 22 kts | 46° |
| 2026-04-26 21:29 | 34.73268 | -92.20682 | 264 ft | 18 kts | 46° |
| 2026-04-26 21:29 | 34.73361 | -92.20560 | 264 ft | 21 kts | 47° |
| 2026-04-26 21:29 | 34.73454 | -92.20419 | 264 ft | 22 kts | 53° |
| 2026-04-26 21:29 | 34.73547 | -92.20269 | 263 ft | 22 kts | 57° |
| 2026-04-26 21:30 | 34.73553 | -92.20215 | 262 ft | 0 kts | 115° |
| 2026-04-26 21:32 | 34.73550 | -92.20209 | 262 ft | 5 kts | 115° |
| 2026-04-26 21:32 | 34.73502 | -92.20153 | 259 ft | 9 kts | 153° |
| 2026-04-26 21:33 | 34.73468 | -92.20171 | 260 ft | 0 kts | 227° |
| 2026-04-26 21:33 | 34.73409 | -92.20246 | 260 ft | 40 kts | 226° |
| 2026-04-26 21:33 | 34.73036 | -92.20721 | 261 ft | 114 kts | 226° |
| 2026-04-26 21:33 | 34.72341 | -92.21617 | 319 ft | 170 kts | 225° |
| 2026-04-26 21:34 | 34.71455 | -92.22718 | 957 ft | 195 kts | 223° |
| 2026-04-26 21:34 | 34.70742 | -92.24258 | 1562 ft | 228 kts | 256° |
| 2026-04-26 21:34 | 34.70887 | -92.26240 | 2392 ft | 246 kts | 292° |
| 2026-04-26 21:34 | 34.71961 | -92.27912 | 3370 ft | 263 kts | 320° |
| 2026-04-26 21:35 | 34.73671 | -92.28940 | 4095 ft | 283 kts | 345° |
| 2026-04-26 21:35 | 34.75652 | -92.28967 | 4947 ft | 292 kts | 16° |
| 2026-04-26 21:35 | 34.77392 | -92.27766 | 5961 ft | 291 kts | 45° |
| 2026-04-26 21:35 | 34.78452 | -92.25707 | 6889 ft | 289 kts | 72° |
| 2026-04-26 21:36 | 34.78877 | -92.23316 | 7700 ft | 292 kts | 88° |
| 2026-04-26 21:36 | 34.78898 | -92.20823 | 8475 ft | 297 kts | 94° |
| 2026-04-26 21:36 | 34.78792 | -92.18291 | 9220 ft | 304 kts | 95° |
| 2026-04-26 21:36 | 34.78671 | -92.15697 | 9938 ft | 309 kts | 95° |
| 2026-04-26 21:37 | 34.78650 | -92.13026 | 10308 ft | 326 kts | 82° |
| 2026-04-26 21:37 | 34.79217 | -92.10280 | 10658 ft | 341 kts | 71° |
| 2026-04-26 21:37 | 34.80019 | -92.07544 | 11269 ft | 346 kts | 70° |
| 2026-04-26 21:37 | 34.80825 | -92.04773 | 11953 ft | 350 kts | 70° |
| 2026-04-26 21:38 | 34.81613 | -92.01956 | 12654 ft | 354 kts | 70° |
| 2026-04-26 21:38 | 34.82386 | -91.99130 | 13371 ft | 358 kts | 70° |
| 2026-04-26 21:38 | 34.83180 | -91.96198 | 14073 ft | 362 kts | 70° |
| 2026-04-26 21:38 | 34.83972 | -91.93266 | 14753 ft | 366 kts | 70° |
| 2026-04-26 21:39 | 34.84760 | -91.90344 | 15469 ft | 369 kts | 69° |
| 2026-04-26 21:39 | 34.85562 | -91.87362 | 16179 ft | 373 kts | 69° |
| 2026-04-26 21:39 | 34.86385 | -91.84305 | 16854 ft | 377 kts | 69° |
| 2026-04-26 21:39 | 34.87197 | -91.81294 | 17510 ft | 381 kts | 69° |
| 2026-04-26 21:40 | 34.88024 | -91.78219 | 18165 ft | 385 kts | 69° |
| 2026-04-26 21:40 | 34.88862 | -91.75104 | 18742 ft | 389 kts | 69° |
| 2026-04-26 21:40 | 34.89708 | -91.71956 | 19325 ft | 393 kts | 69° |
| 2026-04-26 21:40 | 34.90561 | -91.68775 | 19930 ft | 397 kts | 68° |
| 2026-04-26 21:41 | 34.91423 | -91.65558 | 20533 ft | 402 kts | 68° |
| 2026-04-26 21:41 | 34.92296 | -91.62302 | 21143 ft | 406 kts | 68° |
| 2026-04-26 21:41 | 34.93176 | -91.59010 | 21723 ft | 411 kts | 68° |
| 2026-04-26 21:41 | 34.94066 | -91.55685 | 22271 ft | 415 kts | 68° |
| 2026-04-26 21:42 | 34.94965 | -91.52324 | 22835 ft | 420 kts | 68° |
| 2026-04-26 21:42 | 34.95874 | -91.48927 | 23443 ft | 423 kts | 68° |
| 2026-04-26 21:42 | 34.96787 | -91.45496 | 23904 ft | 426 kts | 68° |
| 2026-04-26 21:42 | 34.97704 | -91.42052 | 24382 ft | 429 kts | 68° |
| 2026-04-26 21:43 | 34.98627 | -91.38579 | 24916 ft | 431 kts | 68° |
| 2026-04-26 21:43 | 34.99554 | -91.35090 | 25451 ft | 434 kts | 68° |
| 2026-04-26 21:43 | 35.00487 | -91.31577 | 25927 ft | 437 kts | 68° |
| 2026-04-26 21:43 | 35.01426 | -91.28040 | 26377 ft | 440 kts | 68° |
| 2026-04-26 21:44 | 35.02371 | -91.24482 | 26828 ft | 443 kts | 68° |
| 2026-04-26 21:44 | 35.03320 | -91.20901 | 27271 ft | 445 kts | 68° |
| 2026-04-26 21:44 | 35.04276 | -91.17291 | 27706 ft | 448 kts | 69° |
| 2026-04-26 21:44 | 35.05235 | -91.13663 | 28143 ft | 451 kts | 69° |
| 2026-04-26 21:45 | 35.06201 | -91.10005 | 28532 ft | 454 kts | 69° |
| 2026-04-26 21:45 | 35.07159 | -91.06379 | 28912 ft | 456 kts | 69° |
| 2026-04-26 21:45 | 35.08134 | -91.02681 | 29285 ft | 459 kts | 69° |
| 2026-04-26 21:45 | 35.09115 | -90.98958 | 29663 ft | 462 kts | 69° |
| 2026-04-26 21:46 | 35.10113 | -90.95160 | 30030 ft | 464 kts | 69° |
| 2026-04-26 21:46 | 35.11103 | -90.91398 | 30324 ft | 467 kts | 69° |
| 2026-04-26 21:46 | 35.12084 | -90.87669 | 30630 ft | 469 kts | 69° |
| 2026-04-26 21:46 | 35.13085 | -90.83864 | 30936 ft | 471 kts | 69° |
| 2026-04-26 21:47 | 35.14089 | -90.80046 | 31232 ft | 473 kts | 69° |
| 2026-04-26 21:47 | 35.15092 | -90.76200 | 31530 ft | 475 kts | 69° |
| 2026-04-26 21:47 | 35.16092 | -90.72351 | 31857 ft | 477 kts | 69° |
| 2026-04-26 21:47 | 35.17103 | -90.68484 | 32131 ft | 478 kts | 69° |
| 2026-04-26 21:48 | 35.18109 | -90.64615 | 32488 ft | 478 kts | 69° |
| 2026-04-26 21:48 | 35.19116 | -90.60742 | 32856 ft | 477 kts | 69° |
| 2026-04-26 21:48 | 35.20115 | -90.56883 | 33096 ft | 480 kts | 69° |
| 2026-04-26 21:48 | 35.21136 | -90.52964 | 33096 ft | 487 kts | 69° |
| 2026-04-26 21:49 | 35.23215 | -90.44963 | 32960 ft | 498 kts | 69° |
| 2026-04-26 21:49 | 35.25318 | -90.36868 | 32949 ft | 500 kts | 70° |
| 2026-04-26 21:50 | 35.27050 | -90.30124 | 32967 ft | 499 kts | 70° |
| 2026-04-26 21:50 | 35.29485 | -90.20652 | 32983 ft | 499 kts | 70° |
| 2026-04-26 21:51 | 35.31565 | -90.12539 | 32989 ft | 499 kts | 70° |
| 2026-04-26 21:51 | 35.33651 | -90.04429 | 32991 ft | 500 kts | 70° |
| 2026-04-26 21:52 | 35.35715 | -89.96303 | 33045 ft | 500 kts | 70° |
| 2026-04-26 21:52 | 35.37785 | -89.88176 | 33059 ft | 500 kts | 70° |
| 2026-04-26 21:53 | 35.39851 | -89.80033 | 33058 ft | 500 kts | 70° |
| 2026-04-26 21:53 | 35.41906 | -89.71881 | 33048 ft | 500 kts | 70° |
| 2026-04-26 21:54 | 35.43959 | -89.63735 | 33027 ft | 500 kts | 70° |
| 2026-04-26 21:54 | 35.46014 | -89.55588 | 33025 ft | 500 kts | 70° |
| 2026-04-26 21:55 | 35.48056 | -89.47435 | 33008 ft | 500 kts | 70° |
| 2026-04-26 21:55 | 35.50088 | -89.39270 | 33028 ft | 500 kts | 70° |
| 2026-04-26 21:56 | 35.52117 | -89.31123 | 33009 ft | 499 kts | 70° |
| 2026-04-26 21:56 | 35.54142 | -89.22970 | 33013 ft | 499 kts | 70° |
| 2026-04-26 21:57 | 35.56164 | -89.14808 | 33015 ft | 500 kts | 70° |
| 2026-04-26 21:57 | 35.58178 | -89.06638 | 33007 ft | 500 kts | 70° |
| 2026-04-26 21:58 | 35.60184 | -88.98462 | 33040 ft | 500 kts | 70° |
| 2026-04-26 21:58 | 35.62186 | -88.90281 | 33038 ft | 500 kts | 70° |
| 2026-04-26 21:59 | 35.64177 | -88.82158 | 33029 ft | 500 kts | 70° |
| 2026-04-26 21:59 | 35.66173 | -88.73978 | 33031 ft | 500 kts | 70° |
| 2026-04-26 22:00 | 35.68156 | -88.65780 | 33024 ft | 500 kts | 70° |
| 2026-04-26 22:00 | 35.70146 | -88.57588 | 33023 ft | 500 kts | 70° |
| 2026-04-26 22:01 | 35.72116 | -88.49382 | 33027 ft | 500 kts | 70° |
| 2026-04-26 22:01 | 35.74087 | -88.41189 | 33032 ft | 498 kts | 70° |
| 2026-04-26 22:02 | 35.75721 | -88.34384 | 33039 ft | 499 kts | 71° |
| 2026-04-26 22:02 | 35.77985 | -88.24788 | 33045 ft | 499 kts | 71° |
| 2026-04-26 22:03 | 35.79947 | -88.16591 | 33041 ft | 499 kts | 71° |
| 2026-04-26 22:03 | 35.81904 | -88.08384 | 33031 ft | 499 kts | 70° |
| 2026-04-26 22:04 | 35.83858 | -88.00151 | 33031 ft | 501 kts | 71° |
| 2026-04-26 22:04 | 35.85799 | -87.91908 | 33031 ft | 501 kts | 71° |
| 2026-04-26 22:05 | 35.87735 | -87.83654 | 33028 ft | 501 kts | 71° |
| 2026-04-26 22:05 | 35.89666 | -87.75403 | 33031 ft | 501 kts | 71° |
| 2026-04-26 22:06 | 35.91584 | -87.67133 | 33033 ft | 502 kts | 71° |
| 2026-04-26 22:06 | 35.93514 | -87.58862 | 33042 ft | 502 kts | 70° |
| 2026-04-26 22:07 | 35.95432 | -87.50579 | 33043 ft | 502 kts | 71° |
| 2026-04-26 22:07 | 35.97024 | -87.43695 | 33043 ft | 502 kts | 71° |
| 2026-04-26 22:08 | 35.99239 | -87.34053 | 33038 ft | 502 kts | 71° |
| 2026-04-26 22:08 | 36.01143 | -87.25742 | 33041 ft | 503 kts | 70° |
| 2026-04-26 22:09 | 36.03042 | -87.17417 | 33044 ft | 503 kts | 70° |
| 2026-04-26 22:09 | 36.04939 | -87.09094 | 33043 ft | 503 kts | 70° |
| 2026-04-26 22:10 | 36.06828 | -87.00757 | 33037 ft | 503 kts | 70° |
| 2026-04-26 22:10 | 36.08704 | -86.92429 | 33043 ft | 503 kts | 70° |
| 2026-04-26 22:11 | 36.10576 | -86.84091 | 33041 ft | 503 kts | 70° |
| 2026-04-26 22:11 | 36.12455 | -86.75754 | 33056 ft | 503 kts | 70° |
| 2026-04-26 22:12 | 36.13743 | -86.67284 | 33034 ft | 503 kts | 91° |
| 2026-04-26 22:12 | 36.12498 | -86.58906 | 33014 ft | 485 kts | 101° |
| 2026-04-26 22:13 | 36.11121 | -86.50852 | 33030 ft | 485 kts | 98° |
| 2026-04-26 22:13 | 36.09844 | -86.42529 | 32982 ft | 500 kts | 98° |
| 2026-04-26 22:14 | 36.08559 | -86.34073 | 32979 ft | 501 kts | 98° |
| 2026-04-26 22:14 | 36.07268 | -86.25604 | 32972 ft | 502 kts | 98° |
| 2026-04-26 22:15 | 36.05969 | -86.17127 | 33007 ft | 502 kts | 97° |
| 2026-04-26 22:15 | 36.04667 | -86.08674 | 32961 ft | 500 kts | 97° |
| 2026-04-26 22:16 | 36.03361 | -86.00219 | 32995 ft | 501 kts | 97° |
| 2026-04-26 22:16 | 36.02269 | -85.93193 | 32987 ft | 501 kts | 97° |
| 2026-04-26 22:17 | 36.00949 | -85.84740 | 32988 ft | 501 kts | 97° |
| 2026-04-26 22:17 | 35.99626 | -85.76304 | 32990 ft | 501 kts | 97° |
| 2026-04-26 22:18 | 35.98295 | -85.67859 | 32991 ft | 501 kts | 97° |
| 2026-04-26 22:18 | 35.96958 | -85.59417 | 32993 ft | 501 kts | 97° |
| 2026-04-26 22:19 | 35.95616 | -85.50974 | 32995 ft | 501 kts | 97° |
| 2026-04-26 22:19 | 35.94269 | -85.42537 | 33014 ft | 501 kts | 97° |
| 2026-04-26 22:20 | 35.92913 | -85.34100 | 32997 ft | 501 kts | 97° |
| 2026-04-26 22:20 | 35.91551 | -85.25660 | 33019 ft | 501 kts | 97° |
| 2026-04-26 22:21 | 35.90187 | -85.17237 | 33035 ft | 501 kts | 97° |
| 2026-04-26 22:21 | 35.88812 | -85.08798 | 33024 ft | 501 kts | 97° |
| 2026-04-26 22:22 | 35.87435 | -85.00383 | 33022 ft | 502 kts | 97° |
| 2026-04-26 22:22 | 35.86048 | -84.91943 | 33008 ft | 501 kts | 97° |
| 2026-04-26 22:23 | 35.84674 | -84.83533 | 32993 ft | 501 kts | 97° |
| 2026-04-26 22:23 | 35.83268 | -84.75110 | 32992 ft | 501 kts | 97° |
| 2026-04-26 22:24 | 35.81863 | -84.66695 | 32997 ft | 502 kts | 97° |
| 2026-04-26 22:24 | 35.81531 | -84.62460 | 32984 ft | 493 kts | 83° |
| 2026-04-26 22:24 | 35.81743 | -84.58257 | 33027 ft | 491 kts | 78° |
| 2026-04-26 22:25 | 35.82443 | -84.49905 | 32956 ft | 488 kts | 78° |
| 2026-04-26 22:25 | 35.83067 | -84.41565 | 32992 ft | 490 kts | 79° |
| 2026-04-26 22:26 | 35.83655 | -84.33202 | 32968 ft | 490 kts | 79° |
| 2026-04-26 22:26 | 35.84229 | -84.24888 | 32966 ft | 488 kts | 79° |
| 2026-04-26 22:27 | 35.84800 | -84.16548 | 32980 ft | 489 kts | 79° |
| 2026-04-26 22:27 | 35.85366 | -84.08194 | 32974 ft | 489 kts | 79° |
| 2026-04-26 22:28 | 35.85926 | -83.99843 | 32984 ft | 489 kts | 79° |
| 2026-04-26 22:28 | 35.86480 | -83.91488 | 33003 ft | 489 kts | 79° |
| 2026-04-26 22:29 | 35.87021 | -83.83172 | 33009 ft | 486 kts | 79° |
| 2026-04-26 22:29 | 35.87565 | -83.74865 | 32997 ft | 486 kts | 79° |
| 2026-04-26 22:30 | 35.88100 | -83.66547 | 32989 ft | 487 kts | 79° |
| 2026-04-26 22:30 | 35.88629 | -83.58226 | 32984 ft | 487 kts | 79° |
| 2026-04-26 22:31 | 35.89150 | -83.49920 | 32956 ft | 484 kts | 80° |
| 2026-04-26 22:31 | 35.89092 | -83.45754 | 32987 ft | 493 kts | 94° |
| 2026-04-26 22:31 | 35.88355 | -83.41590 | 33018 ft | 499 kts | 101° |
| 2026-04-26 22:32 | 35.86438 | -83.33377 | 32967 ft | 497 kts | 102° |
| 2026-04-26 22:32 | 35.84570 | -83.25156 | 32970 ft | 499 kts | 101° |
| 2026-04-26 22:33 | 35.81819 | -83.12797 | 32945 ft | 496 kts | 101° |
| 2026-04-26 22:34 | 35.80006 | -83.04626 | 32985 ft | 495 kts | 101° |
| 2026-04-26 22:34 | 35.78187 | -82.96450 | 32981 ft | 495 kts | 101° |
| 2026-04-26 22:35 | 35.76357 | -82.88272 | 32972 ft | 496 kts | 101° |
| 2026-04-26 22:35 | 35.74524 | -82.80089 | 32974 ft | 496 kts | 101° |
| 2026-04-26 22:36 | 35.72688 | -82.71940 | 32971 ft | 491 kts | 101° |
| 2026-04-26 22:36 | 35.70855 | -82.63850 | 32540 ft | 485 kts | 102° |
| 2026-04-26 22:36 | 35.69953 | -82.59914 | 32206 ft | 471 kts | 102° |
| 2026-04-26 22:37 | 35.69068 | -82.56042 | 31486 ft | 468 kts | 102° |
| 2026-04-26 22:37 | 35.68193 | -82.52216 | 30848 ft | 463 kts | 102° |
| 2026-04-26 22:37 | 35.67323 | -82.48418 | 30220 ft | 458 kts | 102° |
| 2026-04-26 22:37 | 35.66475 | -82.44718 | 29560 ft | 453 kts | 102° |
| 2026-04-26 22:38 | 35.65627 | -82.41033 | 29018 ft | 444 kts | 102° |
| 2026-04-26 22:38 | 35.64782 | -82.37359 | 28396 ft | 438 kts | 102° |
| 2026-04-26 22:38 | 35.63966 | -82.33819 | 27917 ft | 436 kts | 102° |
| 2026-04-26 22:38 | 35.63136 | -82.30210 | 27280 ft | 441 kts | 103° |
| 2026-04-26 22:39 | 35.62304 | -82.26603 | 26846 ft | 436 kts | 103° |
| 2026-04-26 22:39 | 35.61476 | -82.23027 | 26371 ft | 433 kts | 103° |
| 2026-04-26 22:39 | 35.60656 | -82.19496 | 26083 ft | 428 kts | 103° |
| 2026-04-26 22:39 | 35.59840 | -82.15988 | 25720 ft | 426 kts | 103° |
| 2026-04-26 22:40 | 35.59029 | -82.12497 | 25348 ft | 425 kts | 103° |
| 2026-04-26 22:40 | 35.58220 | -82.09024 | 25015 ft | 421 kts | 103° |
| 2026-04-26 22:40 | 35.57417 | -82.05589 | 24523 ft | 416 kts | 104° |
| 2026-04-26 22:40 | 35.56393 | -82.02295 | 24104 ft | 410 kts | 112° |
| 2026-04-26 22:41 | 35.55169 | -81.99147 | 23485 ft | 408 kts | 114° |
| 2026-04-26 22:41 | 35.53954 | -81.96028 | 22978 ft | 399 kts | 113° |
| 2026-04-26 22:41 | 35.52804 | -81.92967 | 22429 ft | 393 kts | 112° |
| 2026-04-26 22:41 | 35.51692 | -81.89931 | 21947 ft | 386 kts | 112° |
| 2026-04-26 22:42 | 35.50604 | -81.86936 | 21415 ft | 383 kts | 112° |
| 2026-04-26 22:42 | 35.49527 | -81.83966 | 20919 ft | 379 kts | 111° |
| 2026-04-26 22:42 | 35.48464 | -81.81034 | 20414 ft | 375 kts | 112° |
| 2026-04-26 22:42 | 35.47406 | -81.78120 | 19905 ft | 371 kts | 111° |
| 2026-04-26 22:43 | 35.46360 | -81.75238 | 19423 ft | 369 kts | 111° |
| 2026-04-26 22:43 | 35.45319 | -81.72374 | 18928 ft | 365 kts | 111° |
| 2026-04-26 22:43 | 35.44294 | -81.69555 | 18443 ft | 359 kts | 111° |
| 2026-04-26 22:43 | 35.43295 | -81.66759 | 17871 ft | 354 kts | 109° |
| 2026-04-26 22:44 | 35.42491 | -81.63960 | 17460 ft | 344 kts | 106° |
| 2026-04-26 22:44 | 35.41713 | -81.61221 | 17021 ft | 338 kts | 114° |
| 2026-04-26 22:44 | 35.40294 | -81.58956 | 16669 ft | 334 kts | 135° |
| 2026-04-26 22:44 | 35.38476 | -81.57263 | 16460 ft | 322 kts | 140° |
| 2026-04-26 22:45 | 35.36779 | -81.55537 | 16203 ft | 314 kts | 133° |
| 2026-04-26 22:45 | 35.35294 | -81.53590 | 15963 ft | 312 kts | 127° |
| 2026-04-26 22:45 | 35.33943 | -81.51503 | 15717 ft | 313 kts | 124° |
| 2026-04-26 22:45 | 35.32670 | -81.49389 | 15485 ft | 312 kts | 123° |
| 2026-04-26 22:46 | 35.31381 | -81.47213 | 15239 ft | 311 kts | 123° |
| 2026-04-26 22:46 | 35.30133 | -81.45100 | 14997 ft | 309 kts | 123° |
| 2026-04-26 22:46 | 35.28876 | -81.42982 | 14839 ft | 303 kts | 123° |
| 2026-04-26 22:46 | 35.27658 | -81.40930 | 14645 ft | 296 kts | 123° |
| 2026-04-26 22:47 | 35.26454 | -81.38900 | 14574 ft | 294 kts | 123° |
| 2026-04-26 22:47 | 35.25245 | -81.36858 | 14649 ft | 301 kts | 123° |
| 2026-04-26 22:47 | 35.24024 | -81.34802 | 14617 ft | 290 kts | 123° |
| 2026-04-26 22:47 | 35.22867 | -81.32867 | 14462 ft | 273 kts | 123° |
| 2026-04-26 22:48 | 35.21738 | -81.30970 | 13922 ft | 282 kts | 123° |
| 2026-04-26 22:48 | 35.20572 | -81.29003 | 13229 ft | 290 kts | 123° |
| 2026-04-26 22:48 | 35.19372 | -81.26987 | 12471 ft | 295 kts | 123° |
| 2026-04-26 22:48 | 35.18164 | -81.24963 | 11729 ft | 294 kts | 123° |
| 2026-04-26 22:49 | 35.16963 | -81.22952 | 10995 ft | 292 kts | 123° |
| 2026-04-26 22:49 | 35.15776 | -81.20963 | 10275 ft | 289 kts | 123° |
| 2026-04-26 22:49 | 35.14593 | -81.18985 | 9535 ft | 287 kts | 122° |
| 2026-04-26 22:49 | 35.13419 | -81.17025 | 8762 ft | 285 kts | 122° |
| 2026-04-26 22:50 | 35.12253 | -81.15072 | 8011 ft | 285 kts | 122° |
| 2026-04-26 22:50 | 35.11091 | -81.13127 | 7284 ft | 285 kts | 122° |
| 2026-04-26 22:50 | 35.09923 | -81.11173 | 6573 ft | 284 kts | 123° |
| 2026-04-26 22:50 | 35.08758 | -81.09227 | 5823 ft | 283 kts | 123° |
| 2026-04-26 22:51 | 35.07598 | -81.07287 | 5075 ft | 281 kts | 123° |
| 2026-04-26 22:51 | 35.06443 | -81.05400 | 4320 ft | 274 kts | 127° |
| 2026-04-26 22:51 | 35.05039 | -81.03925 | 4080 ft | 253 kts | 134° |
| 2026-04-26 22:51 | 35.03893 | -81.02306 | 4402 ft | 255 kts | 123° |
| 2026-04-26 22:52 | 35.02849 | -81.00604 | 5622 ft | 242 kts | 123° |
| 2026-04-26 22:52 | 35.01783 | -80.98853 | 5911 ft | 270 kts | 123° |
| 2026-04-26 22:52 | 35.00811 | -80.96868 | 5815 ft | 275 kts | 103° |
| 2026-04-26 22:52 | 35.00637 | -80.94584 | 5309 ft | 271 kts | 79° |
| 2026-04-26 22:53 | 35.01208 | -80.92425 | 4865 ft | 265 kts | 57° |
| 2026-04-26 22:53 | 35.02569 | -80.91018 | 4383 ft | 261 kts | 21° |
| 2026-04-26 22:53 | 35.04259 | -80.90480 | 4375 ft | 243 kts | 0° |
| 2026-04-26 22:53 | 35.05858 | -80.91138 | 3953 ft | 244 kts | 336° |
| 2026-04-26 22:54 | 35.07246 | -80.92094 | 3924 ft | 209 kts | 333° |
| 2026-04-26 22:54 | 35.08397 | -80.92917 | 3780 ft | 179 kts | 335° |
| 2026-04-26 22:54 | 35.09478 | -80.93571 | 3467 ft | 168 kts | 343° |
| 2026-04-26 22:54 | 35.10554 | -80.94047 | 3104 ft | 162 kts | 349° |
| 2026-04-26 22:55 | 35.11643 | -80.94374 | 2750 ft | 159 kts | 355° |
| 2026-04-26 22:55 | 35.12716 | -80.94539 | 2407 ft | 152 kts | 1° |
| 2026-04-26 22:55 | 35.13733 | -80.94613 | 2123 ft | 141 kts | 2° |
| 2026-04-26 22:55 | 35.14719 | -80.94683 | 1924 ft | 145 kts | 3° |
| 2026-04-26 22:56 | 35.15725 | -80.94749 | 1699 ft | 144 kts | 4° |
| 2026-04-26 22:56 | 35.16708 | -80.94816 | 1404 ft | 141 kts | 1° |
| 2026-04-26 22:56 | 35.17745 | -80.94898 | 1189 ft | 155 kts | 4° |
| 2026-04-26 22:56 | 35.18839 | -80.94993 | 1006 ft | 159 kts | 360° |
| 2026-04-26 22:57 | 35.19918 | -80.95082 | 801 ft | 152 kts | 1° |
| 2026-04-26 22:57 | 35.20912 | -80.95160 | 735 ft | 127 kts | 356° |
| 2026-04-26 22:57 | 35.21639 | -80.95224 | 737 ft | 81 kts | 356° |
| 2026-04-26 22:57 | 35.21981 | -80.95170 | 736 ft | 42 kts | 26° |
| 2026-04-26 22:58 | 35.22077 | -80.95112 | 733 ft | 0 kts | 32° |
| 2026-04-26 22:58 | 35.22078 | -80.95111 | 733 ft | 1 kts | 32° |
| 2026-04-26 22:59 | 35.22120 | -80.95081 | 731 ft | 13 kts | 18° |
| 2026-04-26 22:59 | 35.22210 | -80.95046 | 731 ft | 12 kts | 54° |
| 2026-04-26 22:59 | 35.22172 | -80.94978 | 731 ft | 13 kts | 174° |
| 2026-04-26 22:59 | 35.22067 | -80.94971 | 731 ft | 16 kts | 177° |
| 2026-04-26 23:00 | 35.21949 | -80.94964 | 730 ft | 18 kts | 176° |
| 2026-04-26 23:00 | 35.21817 | -80.94952 | 731 ft | 20 kts | 176° |
| 2026-04-26 23:00 | 35.21680 | -80.94937 | 731 ft | 18 kts | 176° |
| 2026-04-26 23:00 | 35.21614 | -80.94909 | 730 ft | 14 kts | 122° |
| 2026-04-26 23:01 | 35.21612 | -80.94787 | 730 ft | 16 kts | 87° |
| 2026-04-26 23:01 | 35.21620 | -80.94646 | 730 ft | 17 kts | 86° |
| 2026-04-26 23:01 | 35.21632 | -80.94485 | 729 ft | 21 kts | 79° |
| 2026-04-26 23:01 | 35.21667 | -80.94276 | 730 ft | 19 kts | 90° |
| 2026-04-26 23:02 | 35.21690 | -80.94172 | 730 ft | 20 kts | 47° |
| 2026-04-26 23:02 | 35.21816 | -80.93999 | 729 ft | 21 kts | 49° |
| 2026-04-26 23:02 | 35.21885 | -80.93924 | 730 ft | 15 kts | 15° |
| 2026-04-26 23:02 | 35.21970 | -80.93847 | 729 ft | 16 kts | 46° |
| 2026-04-26 23:03 | 35.22038 | -80.93800 | 730 ft | 11 kts | 357° |
| 2026-04-26 23:03 | 35.22135 | -80.93808 | 730 ft | 16 kts | 356° |
| 2026-04-26 23:03 | 35.22246 | -80.93817 | 730 ft | 8 kts | 355° |
| 2026-04-26 23:03 | 35.22251 | -80.93821 | 729 ft | 1 kts | 307° |
| 2026-04-26 23:04 | 35.22247 | -80.93843 | 730 ft | 5 kts | 245° |
| 2026-04-26 23:04 | 35.22248 | -80.93870 | 730 ft | 3 kts | 327° |
| 2026-04-26 23:04 | 35.22266 | -80.93882 | 730 ft | 1 kts | 330° |
| 2026-04-26 23:04 | 35.22267 | -80.93883 | 730 ft | 0 kts | 331° |